Time;durP1;ratioP1;P1;durP2;ratioP2;P2;SDS_P1;SDS_P2;PMS_P1;PMS_P2;Temp;Humidity;BMP_temperature;BMP_pressure;BME280_temperature;BME280_humidity;BME280_pressure;Samples;Min_cycle;Max_cycle;Signal;HPM_P1;HPM_P2
2022/01/21 00:01:40;;;;;;;6.35;2.78;;;;;;;-2.37;92.03;96440.09;5042128;28;20049;-75
2022/01/21 00:04:07;;;;;;;7.25;2.80;;;;;;;-2.40;91.09;96446.38;5047866;28;20115;-75
2022/01/21 00:06:32;;;;;;;8.43;3.28;;;;;;;-2.31;92.12;96450.56;5048197;28;20041;-75
2022/01/21 00:08:58;;;;;;;8.65;2.70;;;;;;;-2.34;91.12;96439.75;5043358;28;20064;-75
2022/01/21 00:11:25;;;;;;;11.95;3.03;;;;;;;-2.24;91.80;96442.16;5033777;28;20091;-75
2022/01/21 00:13:53;;;;;;;7.85;2.95;;;;;;;-2.33;92.31;96442.19;5038503;28;20060;-75
2022/01/21 00:16:21;;;;;;;7.80;3.00;;;;;;;-2.37;92.93;96450.41;5045874;28;20065;-75
2022/01/21 00:18:57;;;;;;;8.30;2.90;;;;;;;-2.31;91.70;96455.72;5035093;28;20041;-75
2022/01/21 00:32:22;;;;;;;7.20;2.83;;;;;;;-2.25;91.80;96463.78;5048107;28;20052;-75
2022/01/21 00:34:47;;;;;;;13.25;3.13;;;;;;;-2.21;91.38;96462.44;5043326;28;20044;-76
2022/01/21 00:37:13;;;;;;;6.80;2.97;;;;;;;-2.30;91.98;96459.91;5036502;28;20048;-75
2022/01/21 00:39:39;;;;;;;10.98;3.08;;;;;;;-2.21;91.45;96452.97;5039572;28;20469;-75
2022/01/21 00:42:26;;;;;;;8.90;3.05;;;;;;;-2.22;92.07;96453.13;5048451;28;20041;-74
2022/01/21 00:44:53;;;;;;;7.18;3.15;;;;;;;-2.23;91.10;96456.66;5034452;28;20049;-75
2022/01/21 00:47:19;;;;;;;7.70;2.42;;;;;;;-2.27;90.74;96457.00;5047300;28;20069;-75
2022/01/21 00:49:45;;;;;;;6.75;2.70;;;;;;;-2.23;91.20;96462.63;5048512;28;20087;-75
2022/01/21 00:52:11;;;;;;;8.70;2.70;;;;;;;-2.29;92.00;96461.50;5047950;28;20045;-75
2022/01/21 00:54:37;;;;;;;8.50;2.83;;;;;;;-2.20;91.31;96456.31;5047772;28;20037;-74
2022/01/21 00:57:03;;;;;;;5.88;2.30;;;;;;;-2.28;91.60;96459.75;5046350;28;20135;-75
2022/01/21 00:59:30;;;;;;;6.03;2.80;;;;;;;-2.28;92.69;96465.69;5047795;28;20044;-75
2022/01/21 01:01:55;;;;;;;12.55;3.40;;;;;;;-2.23;92.53;96466.97;5042730;28;20130;-75
2022/01/21 01:04:21;;;;;;;16.77;3.42;;;;;;;-2.23;92.17;96466.97;5047851;28;20056;-75
2022/01/21 01:06:46;;;;;;;11.10;2.90;;;;;;;-2.13;91.73;96472.75;5033440;28;20037;-75
2022/01/21 01:09:12;;;;;;;11.38;2.92;;;;;;;-2.18;91.64;96464.72;5040944;28;20552;-75
2022/01/21 01:22:17;;;;;;;9.20;3.53;;;;;;;-2.21;92.46;96485.66;5050770;28;20045;-75
2022/01/21 01:27:43;;;;;;;12.27;2.85;;;;;;;-2.16;92.30;96480.81;5036884;28;20042;-75
2022/01/21 01:30:17;;;;;;;12.43;3.38;;;;;;;-2.07;91.53;96490.13;5049899;28;20091;-74
2022/01/21 01:32:44;;;;;;;13.45;3.30;;;;;;;-2.05;91.97;96485.63;5034139;28;20045;-75
2022/01/21 01:35:13;;;;;;;7.57;2.95;;;;;;;-2.06;91.06;96489.16;5043949;28;20045;-75
2022/01/21 01:40:23;;;;;;;12.45;3.20;;;;;;;-2.00;91.53;96482.56;5036207;28;20041;-74
2022/01/21 01:50:57;;;;;;;13.93;3.80;;;;;;;-2.17;92.33;96492.09;5048628;28;20055;-75
2022/01/21 01:53:38;;;;;;;9.88;3.35;;;;;;;-2.15;93.28;96500.50;5050514;28;20049;-75
2022/01/21 01:56:07;;;;;;;8.15;3.20;;;;;;;-2.21;93.26;96495.97;5050086;28;20041;-74
2022/01/21 01:58:38;;;;;;;7.00;2.88;;;;;;;-2.11;92.93;96510.31;5050864;28;20048;-75
2022/01/21 02:01:04;;;;;;;16.10;4.32;;;;;;;-2.10;93.55;96508.53;5049099;28;20041;-75
2022/01/21 02:03:30;;;;;;;13.52;3.72;;;;;;;-2.12;93.90;96511.28;5048773;28;20040;-74
2022/01/21 02:05:56;;;;;;;9.63;3.05;;;;;;;-2.09;93.07;96510.13;5049390;28;20045;-75
2022/01/21 02:08:22;;;;;;;12.73;3.20;;;;;;;-2.03;92.16;96498.38;5050225;28;20041;-75
2022/01/21 02:10:47;;;;;;;13.68;4.25;;;;;;;-2.13;92.49;96503.69;5041001;28;20052;-75
2022/01/21 02:13:32;;;;;;;11.07;3.63;;;;;;;-2.20;92.71;96507.91;5049615;28;20052;-75
2022/01/21 02:16:01;;;;;;;17.23;3.40;;;;;;;-2.19;92.53;96499.22;5236951;22;20012;-75
2022/01/21 02:21:32;;;;;;;10.25;3.35;;;;;;;-2.02;92.55;96495.63;4985187;28;20583;-75
2022/01/21 02:24:05;;;;;;;12.82;3.40;;;;;;;-2.09;91.89;96494.66;4990294;28;20042;-75
2022/01/21 02:26:31;;;;;;;10.85;3.35;;;;;;;-2.05;92.43;96493.38;4988926;28;20050;-74
2022/01/21 02:28:59;;;;;;;21.02;4.00;;;;;;;-2.15;92.34;96495.34;4990262;28;20121;-74
2022/01/21 02:31:25;;;;;;;7.45;3.00;;;;;;;-2.01;92.66;96491.25;4990507;28;20065;-74
2022/01/21 02:33:50;;;;;;;6.15;2.40;;;;;;;-1.96;91.85;96484.63;4977039;28;20509;-75
2022/01/21 02:36:16;;;;;;;9.05;2.92;;;;;;;-2.03;92.54;96494.00;4993576;28;20042;-74
2022/01/21 02:38:42;;;;;;;12.45;2.70;;;;;;;-2.07;91.69;96492.72;4988336;28;20043;-75
2022/01/21 02:41:08;;;;;;;14.73;3.33;;;;;;;-2.07;91.84;96497.88;4985820;28;20038;-75
2022/01/21 02:43:33;;;;;;;12.82;3.22;;;;;;;-2.07;91.96;96492.72;4990724;28;20113;-74
2022/01/21 02:46:04;;;;;;;10.73;3.00;;;;;;;-2.07;91.68;96492.72;4989585;28;20117;-74
2022/01/21 02:48:34;;;;;;;10.95;3.20;;;;;;;-2.03;92.47;96488.03;4990929;28;20538;-75
2022/01/21 02:51:01;;;;;;;15.77;3.42;;;;;;;-2.03;91.68;96491.41;5000046;28;20042;-75
2022/01/21 02:53:40;;;;;;;11.48;3.30;;;;;;;-2.12;91.38;96484.69;4990557;28;20401;-75
2022/01/21 02:56:07;;;;;;;10.95;3.17;;;;;;;-2.06;91.49;96489.16;4989750;28;20068;-75
2022/01/21 02:58:33;;;;;;;9.65;3.17;;;;;;;-2.20;92.07;96497.59;4992216;28;20038;-75
2022/01/21 03:00:59;;;;;;;6.68;3.35;;;;;;;-2.24;92.93;96491.16;4997476;28;20062;-75
2022/01/21 03:03:25;;;;;;;7.55;3.03;;;;;;;-2.17;91.68;96486.94;5000388;28;20049;-74
2022/01/21 03:05:50;;;;;;;6.10;2.55;;;;;;;-2.24;92.28;96486.81;4988115;28;20038;-76
2022/01/21 03:08:16;;;;;;;9.32;3.20;;;;;;;-2.18;91.67;96495.66;4989955;28;20042;-74
2022/01/21 03:10:41;;;;;;;9.98;3.42;;;;;;;-2.25;90.72;96486.97;4996252;28;20109;-74
2022/01/21 03:13:07;;;;;;;10.85;3.83;;;;;;;-2.22;91.42;96499.53;4989639;28;20586;-75
2022/01/21 03:15:32;;;;;;;13.15;3.40;;;;;;;-2.28;91.12;96512.09;4987585;28;20053;-74
2022/01/21 03:17:58;;;;;;;9.13;2.88;;;;;;;-2.18;91.62;96511.13;4989641;28;20463;-74
2022/01/21 03:20:24;;;;;;;9.75;3.17;;;;;;;-2.22;93.08;96515.81;4988437;28;20046;-74
2022/01/21 03:22:49;;;;;;;12.05;2.90;;;;;;;-2.18;90.78;96516.28;4997290;28;20089;-75
2022/01/21 03:25:15;;;;;;;10.15;3.05;;;;;;;-2.16;92.40;96519.50;4983831;28;20121;-75
2022/01/21 03:27:40;;;;;;;15.50;3.13;;;;;;;-2.17;91.44;96512.72;4989680;28;20042;-75
2022/01/21 03:30:09;;;;;;;12.32;3.78;;;;;;;-2.17;91.96;96517.88;4994133;28;20448;-74
2022/01/21 03:32:35;;;;;;;10.93;3.40;;;;;;;-2.13;91.81;96519.16;5000370;28;20781;-74
2022/01/21 03:35:01;;;;;;;9.70;3.10;;;;;;;-2.15;92.27;96521.13;4986578;28;20038;-74
2022/01/21 03:37:26;;;;;;;7.63;3.30;;;;;;;-2.01;91.03;96523.03;4978211;28;20050;-75
2022/01/21 03:39:52;;;;;;;10.23;3.30;;;;;;;-2.11;91.20;96522.41;4991265;28;20034;-75
2022/01/21 03:42:17;;;;;;;8.40;3.20;;;;;;;-2.10;92.05;96524.00;5002445;28;20049;-75
2022/01/21 03:44:43;;;;;;;11.68;3.42;;;;;;;-2.16;91.55;96524.66;4984243;28;20067;-74
2022/01/21 03:47:09;;;;;;;12.48;3.15;;;;;;;-2.17;91.58;96528.19;4989652;28;20038;-75
2022/01/21 03:49:40;;;;;;;15.45;3.25;;;;;;;-2.10;92.23;96518.84;4989551;28;20042;-74
2022/01/21 03:52:07;;;;;;;8.75;2.70;;;;;;;-2.16;91.72;96519.50;5006755;28;20072;-75
2022/01/21 03:54:35;;;;;;;10.35;3.28;;;;;;;-2.07;92.41;96518.50;4986924;28;20042;-74
2022/01/21 03:57:04;;;;;;;10.45;2.85;;;;;;;-2.17;91.81;96520.47;4989199;28;20106;-74
2022/01/21 03:59:30;;;;;;;10.73;3.10;;;;;;;-2.22;92.41;96515.00;4989411;28;20046;-74
2022/01/21 04:01:56;;;;;;;15.95;3.25;;;;;;;-2.19;91.72;96514.69;4996860;28;20077;-74
2022/01/21 04:04:22;;;;;;;13.32;3.72;;;;;;;-2.24;91.68;96522.09;4987921;28;20443;-75
2022/01/21 04:06:47;;;;;;;11.77;3.20;;;;;;;-2.29;92.17;96525.97;4989610;28;20039;-74
2022/01/21 04:09:15;;;;;;;8.30;3.40;;;;;;;-2.27;92.04;96524.03;4986985;28;20044;-74
2022/01/21 04:11:41;;;;;;;11.88;3.75;;;;;;;-2.23;91.71;96529.66;5008660;28;20056;-75
2022/01/21 04:14:06;;;;;;;8.07;3.25;;;;;;;-2.22;91.49;96535.63;4996225;28;20051;-75
2022/01/21 04:16:32;;;;;;;7.30;2.75;;;;;;;-2.27;91.94;96538.69;4986686;28;20065;-75
2022/01/21 04:18:58;;;;;;;9.07;2.83;;;;;;;-2.32;92.88;96536.59;4988692;28;20047;-74
2022/01/21 04:21:23;;;;;;;13.45;3.60;;;;;;;-2.29;92.59;96536.28;4997159;28;20038;-75
2022/01/21 04:23:49;;;;;;;10.20;3.38;;;;;;;-2.35;92.38;96524.03;4999443;28;20091;-74
2022/01/21 04:26:14;;;;;;;8.48;3.05;;;;;;;-2.50;92.88;96523.06;4996787;28;20042;-75
2022/01/21 04:28:40;;;;;;;10.55;2.92;;;;;;;-2.48;93.24;96521.16;4991830;28;20128;-75
2022/01/21 04:31:06;;;;;;;11.43;3.55;;;;;;;-2.50;94.21;96523.91;4995235;28;20038;-74
2022/01/21 04:33:31;;;;;;;9.20;3.08;;;;;;;-2.53;93.64;96526.81;4989065;28;20062;-74
2022/01/21 04:35:57;;;;;;;12.70;3.63;;;;;;;-2.46;94.08;96521.78;4988081;28;20061;-74
2022/01/21 04:38:24;;;;;;;13.38;3.75;;;;;;;-2.42;93.76;96530.81;4988621;28;20122;-75
2022/01/21 04:40:58;;;;;;;9.13;3.40;;;;;;;-2.47;93.91;96522.75;4981982;28;20121;-74
2022/01/21 04:48:52;;;;;;;9.03;2.80;;;;;;;-2.48;95.09;96549.50;4989582;28;20101;-74
2022/01/21 04:51:26;;;;;;;20.30;4.03;;;;;;;-2.36;94.03;96548.22;4996184;28;20502;-74
2022/01/21 04:53:51;;;;;;;;;;;;;;;-2.43;95.39;96544.66;4992000;28;20047;-75
2022/01/21 04:56:17;;;;;;;12.13;3.08;;;;;;;-2.43;94.60;96552.41;4991081;28;20021;-74
2022/01/21 04:58:44;;;;;;;13.93;3.08;;;;;;;-2.43;95.10;96560.13;4992446;28;20049;-74
2022/01/21 05:01:11;;;;;;;7.15;3.35;;;;;;;-2.46;94.56;96550.97;4992431;28;20039;-74
2022/01/21 05:03:39;;;;;;;9.45;3.72;;;;;;;-2.50;95.05;96549.69;4992739;28;20042;-74
2022/01/21 05:06:05;;;;;;;12.20;3.20;;;;;;;-2.47;95.15;96564.00;4998370;28;20077;-75
2022/01/21 05:08:45;;;;;;;11.32;3.53;;;;;;;-2.45;95.27;96567.22;4990520;28;20074;-75
2022/01/21 05:11:13;;;;;;;10.25;3.92;;;;;;;-2.43;95.66;96562.72;4985847;28;20038;-75
2022/01/21 05:13:50;;;;;;;12.10;4.63;;;;;;;-2.44;96.46;96558.53;4987281;28;20049;-74
2022/01/21 05:18:56;;;;;;;8.68;3.85;;;;;;;-2.32;95.35;96570.13;4990832;28;20034;-74
2022/01/21 05:21:22;;;;;;;14.75;4.07;;;;;;;-2.40;95.69;96575.28;4991444;28;20039;-74
2022/01/21 05:23:47;;;;;;;16.48;4.10;;;;;;;-2.37;96.07;96582.72;4991877;28;20057;-74
2022/01/21 05:26:13;;;;;;;12.27;3.72;;;;;;;-2.35;95.27;96578.19;4991673;28;20046;-75
2022/01/21 05:28:39;;;;;;;9.93;3.10;;;;;;;-2.33;95.90;96580.59;4991645;28;20500;-75
2022/01/21 05:31:04;;;;;;;12.13;4.10;;;;;;;-2.30;95.44;96581.09;4991680;28;20041;-75
2022/01/21 05:33:30;;;;;;;11.73;3.33;;;;;;;-2.32;95.45;96588.16;4992016;28;20050;-75
2022/01/21 05:35:55;;;;;;;8.75;3.50;;;;;;;-2.21;95.44;96591.38;4991899;28;20680;-74
2022/01/21 05:38:21;;;;;;;11.63;4.00;;;;;;;-2.32;94.96;96583.00;4990868;28;20643;-74
2022/01/21 05:40:47;;;;;;;12.23;3.63;;;;;;;-2.30;95.08;96591.41;5006181;28;20038;-75
2022/01/21 05:43:13;;;;;;;12.20;4.15;;;;;;;-2.26;95.05;96591.88;4992022;28;20112;-74
2022/01/21 05:48:23;;;;;;;12.43;4.28;;;;;;;-2.35;94.34;96588.50;4991616;28;20038;-74
2022/01/21 05:50:48;;;;;;;18.95;4.25;;;;;;;-2.38;94.52;96600.91;4991349;28;20109;-75
2022/01/21 05:53:14;;;;;;;10.82;3.75;;;;;;;-2.25;94.54;96608.19;4991509;28;20516;-74
2022/01/21 05:55:42;;;;;;;13.07;3.55;;;;;;;-2.34;94.91;96615.91;4998656;28;20046;-75
2022/01/21 05:58:10;;;;;;;14.23;4.00;;;;;;;-2.30;94.55;96617.19;4994323;28;20133;-74
2022/01/21 06:00:37;;;;;;;12.38;3.70;;;;;;;-2.25;95.07;96623.66;4991379;28;20117;-75
2022/01/21 06:03:04;;;;;;;9.68;2.65;;;;;;;-2.37;91.82;96629.13;4996186;28;20484;-74
2022/01/21 06:05:32;;;;;;;8.05;2.70;;;;;;;-2.43;92.33;96627.16;4992405;28;20061;-74
2022/01/21 06:08:07;;;;;;;9.85;2.53;;;;;;;-2.46;93.04;96637.78;4991080;28;20038;-74
2022/01/21 06:10:33;;;;;;;10.15;2.60;;;;;;;-2.62;92.66;96639.38;4975582;28;20046;-74
2022/01/21 06:12:59;;;;;;;4.30;2.05;;;;;;;-2.55;92.87;96660.16;4991015;28;20412;-75
2022/01/21 06:15:25;;;;;;;7.75;2.53;;;;;;;-2.66;91.94;96650.97;4998279;28;20108;-75
2022/01/21 06:17:51;;;;;;;8.60;1.98;;;;;;;-2.62;92.75;96660.00;4998558;28;20042;-74
2022/01/21 06:20:16;;;;;;;6.00;1.92;;;;;;;-2.61;93.11;96661.59;4991380;28;20062;-75
2022/01/21 06:22:42;;;;;;;5.53;2.00;;;;;;;-2.74;91.72;96666.41;4998775;28;20049;-75
2022/01/21 06:25:08;;;;;;;8.80;2.25;;;;;;;-2.72;93.04;96664.47;4990841;28;20053;-74
2022/01/21 06:27:36;;;;;;;7.47;2.75;;;;;;;-2.70;93.71;96662.56;4990298;28;20042;-75
2022/01/21 06:30:03;;;;;;;8.55;2.40;;;;;;;-2.74;93.31;96671.56;4991196;28;20463;-75
2022/01/21 06:32:29;;;;;;;7.07;2.25;;;;;;;-2.72;93.55;96674.78;4990740;28;20096;-75
2022/01/21 06:34:55;;;;;;;6.35;2.40;;;;;;;-2.72;91.96;96672.22;4990472;28;20050;-74
2022/01/21 06:37:20;;;;;;;8.50;2.67;;;;;;;-2.79;92.28;96673.78;4995897;28;20042;-74
2022/01/21 06:39:46;;;;;;;8.43;2.80;;;;;;;-2.80;92.58;96672.22;4990155;28;20109;-74
2022/01/21 06:42:11;;;;;;;10.57;2.58;;;;;;;-2.79;91.54;96669.47;4997919;28;20049;-74
2022/01/21 06:44:37;;;;;;;5.13;2.75;;;;;;;-2.84;91.78;96665.75;5001995;28;20042;-74
2022/01/21 06:47:03;;;;;;;4.63;2.17;;;;;;;-2.85;92.05;96669.28;4990850;28;20034;-74
2022/01/21 06:49:29;;;;;;;11.25;2.80;;;;;;;-2.87;91.30;96676.38;4984860;28;20415;-75
2022/01/21 06:51:54;;;;;;;12.68;3.10;;;;;;;-2.81;91.21;96680.88;4988691;28;20485;-75
2022/01/21 06:54:20;;;;;;;6.45;2.42;;;;;;;-2.84;92.08;96686.34;4995678;28;20129;-74
2022/01/21 06:56:45;;;;;;;8.32;2.53;;;;;;;-2.83;93.52;96682.78;4989415;28;20531;-74
2022/01/21 06:59:11;;;;;;;13.25;2.83;;;;;;;-2.89;92.15;96688.56;4972626;28;20074;-75
2022/01/21 07:01:37;;;;;;;7.90;2.00;;;;;;;-2.87;92.13;96694.41;4991896;28;20066;-74
2022/01/21 07:04:03;;;;;;;9.13;2.40;;;;;;;-2.78;90.12;96706.34;4997731;28;20413;-74
2022/01/21 07:06:28;;;;;;;6.55;2.45;;;;;;;-2.77;90.28;96697.66;5000349;28;20121;-75
2022/01/21 07:08:54;;;;;;;6.35;2.33;;;;;;;-2.80;90.73;96697.97;4994040;28;20414;-75
2022/01/21 07:11:19;;;;;;;7.60;2.45;;;;;;;-2.78;90.11;96693.44;4997387;28;20492;-75
2022/01/21 07:13:45;;;;;;;9.15;2.45;;;;;;;-2.69;90.11;96695.09;5025489;28;20463;-74
2022/01/21 07:16:11;;;;;;;12.65;2.70;;;;;;;-2.85;91.00;96700.19;4991442;28;20159;-76
2022/01/21 07:18:37;;;;;;;9.35;2.75;;;;;;;-2.87;91.57;96702.13;4988267;28;20042;-78
2022/01/21 07:21:03;;;;;;;17.17;3.17;;;;;;;-2.80;90.95;96700.53;4990053;28;20389;-77
2022/01/21 07:23:29;;;;;;;9.90;2.63;;;;;;;-2.88;90.42;96705.66;4988247;28;20088;-74
2022/01/21 07:25:54;;;;;;;13.05;2.90;;;;;;;-2.74;90.02;96712.78;5003186;28;20035;-75
2022/01/21 07:28:20;;;;;;;10.77;2.95;;;;;;;-2.82;89.98;96720.50;4998377;28;20080;-75
2022/01/21 07:30:45;;;;;;;8.23;2.70;;;;;;;-2.84;91.02;96719.84;4996233;28;20126;-75
2022/01/21 07:33:13;;;;;;;14.98;3.28;;;;;;;-2.90;91.74;96728.19;4988637;28;20505;-74
2022/01/21 07:35:39;;;;;;;12.75;3.25;;;;;;;-2.71;90.48;96730.53;4988447;28;20042;-74
2022/01/21 07:38:04;;;;;;;13.68;3.17;;;;;;;-2.66;90.63;96725.72;4987755;28;20034;-79
2022/01/21 07:40:30;;;;;;;10.52;2.95;;;;;;;-2.73;90.23;96719.56;4987387;28;20065;-77
2022/01/21 07:42:55;;;;;;;8.18;3.10;;;;;;;-2.82;90.46;96717.91;4988669;28;20097;-76
2022/01/21 07:45:23;;;;;;;11.52;3.35;;;;;;;-2.83;91.80;96714.53;4987719;28;20050;-77
2022/01/21 07:47:48;;;;;;;10.93;3.00;;;;;;;-2.75;91.90;96710.38;5002501;28;20101;-77
2022/01/21 07:50:14;;;;;;;13.90;3.25;;;;;;;-2.58;91.10;96711.25;4989626;28;20053;-75
2022/01/21 07:52:39;;;;;;;10.02;3.15;;;;;;;-2.48;91.05;96728.19;4986828;28;20428;-75
2022/01/21 07:55:06;;;;;;;9.82;3.25;;;;;;;-2.50;91.69;96729.28;4995753;28;20084;-76
2022/01/21 07:57:31;;;;;;;13.77;3.50;;;;;;;-2.54;93.13;96738.28;4994180;28;20038;-75
2022/01/21 07:59:57;;;;;;;11.48;3.45;;;;;;;-2.53;94.81;96730.44;4989265;28;20449;-76
2022/01/21 08:02:24;;;;;;;16.48;3.53;;;;;;;-2.54;93.43;96727.97;4987938;28;20046;-75
2022/01/21 08:04:50;;;;;;;11.77;3.15;;;;;;;-2.50;93.99;96724.97;4992099;28;20113;-76
2022/01/21 08:07:15;;;;;;;9.93;3.72;;;;;;;-2.57;94.51;96718.00;5004055;28;20049;-76
2022/01/21 08:09:41;;;;;;;14.15;3.90;;;;;;;-2.56;94.09;96719.63;5004051;28;20431;-75
2022/01/21 08:12:07;;;;;;;14.70;3.47;;;;;;;-2.34;93.34;96720.78;4989797;28;20113;-76
2022/01/21 08:14:33;;;;;;;14.55;4.03;;;;;;;-2.53;93.72;96724.44;4991344;28;20559;-78
2022/01/21 08:17:01;;;;;;;11.77;3.30;;;;;;;-2.51;93.59;96732.84;4986377;28;20038;-74
2022/01/21 08:19:26;;;;;;;15.20;4.22;;;;;;;-2.37;92.65;96729.66;4999378;28;20073;-75
2022/01/21 08:21:52;;;;;;;15.77;3.65;;;;;;;-2.42;92.58;96726.75;4976894;28;20035;-75
2022/01/21 08:24:18;;;;;;;9.05;3.05;;;;;;;-2.41;91.86;96712.06;4995167;28;20493;-76
2022/01/21 08:26:43;;;;;;;19.77;3.90;;;;;;;-2.54;92.10;96717.66;4997404;28;20065;-74
2022/01/21 08:29:09;;;;;;;12.52;3.75;;;;;;;-2.46;91.13;96715.94;5000306;28;20041;-75
2022/01/21 08:31:35;;;;;;;17.92;3.58;;;;;;;-2.39;92.03;96710.97;4997452;28;20471;-75
2022/01/21 08:34:01;;;;;;;16.08;3.95;;;;;;;-2.27;91.03;96714.03;5008503;28;20054;-74
2022/01/21 08:36:26;;;;;;;9.30;3.50;;;;;;;-2.27;89.27;96714.84;5009589;28;20050;-73
2022/01/21 08:38:53;;;;;;;13.18;3.30;;;;;;;-2.21;90.35;96720.31;4988726;28;20039;-73
2022/01/21 08:41:19;;;;;;;9.32;3.10;;;;;;;-2.24;90.56;96718.91;4992847;28;20129;-73
2022/01/21 08:43:45;;;;;;;13.38;3.40;;;;;;;-2.37;90.32;96719.34;5008414;28;20105;-74
2022/01/21 08:46:10;;;;;;;9.73;3.38;;;;;;;-2.44;91.33;96726.09;4998168;28;20444;-73
2022/01/21 08:48:36;;;;;;;10.30;3.42;;;;;;;-2.34;90.26;96724.19;4992950;28;20046;-73
2022/01/21 08:51:08;;;;;;;9.20;3.33;;;;;;;-2.33;91.07;96715.50;4986986;28;20050;-73
2022/01/21 08:53:36;;;;;;;21.75;3.50;;;;;;;-2.36;89.61;96720.94;4988252;28;20049;-73
2022/01/21 08:56:08;;;;;;;21.25;3.35;;;;;;;-2.20;89.05;96724.53;5009381;28;20037;-73
2022/01/21 08:58:34;;;;;;;6.85;3.22;;;;;;;-2.07;90.58;96724.88;4986569;28;20050;-78
2022/01/21 09:01:00;;;;;;;12.43;3.25;;;;;;;-1.96;88.21;96721.97;4982723;28;20042;-74
2022/01/21 09:03:25;;;;;;;11.45;3.75;;;;;;;-1.79;87.52;96716.84;4989952;28;20649;-73
2022/01/21 09:05:51;;;;;;;24.88;3.72;;;;;;;-1.73;86.80;96710.22;4992532;28;20042;-72
2022/01/21 09:08:22;;;;;;;9.77;2.50;;;;;;;-1.66;86.24;96717.16;4995214;28;20043;-75
2022/01/21 09:10:48;;;;;;;17.25;3.15;;;;;;;-1.68;86.26;96713.94;4990430;28;20047;-74
2022/01/21 09:13:14;;;;;;;7.50;3.20;;;;;;;-1.69;84.52;96722.63;4997353;28;20049;-72
2022/01/21 09:15:39;;;;;;;9.63;3.40;;;;;;;-1.58;85.85;96724.91;4998507;28;20050;-73
2022/01/21 09:18:05;;;;;;;12.13;3.45;;;;;;;-1.69;84.98;96727.81;4995850;28;20038;-73
2022/01/21 09:20:36;;;;;;;8.50;3.28;;;;;;;-1.77;85.64;96720.88;4991238;28;20416;-78
2022/01/21 09:23:03;;;;;;;11.38;3.40;;;;;;;-1.93;85.63;96724.22;4993322;28;20420;-77
2022/01/21 09:25:28;;;;;;;11.13;3.83;;;;;;;-1.80;86.80;96730.69;4992070;28;20046;-77
2022/01/21 09:27:54;;;;;;;18.70;3.97;;;;;;;-1.79;85.62;96729.75;4992784;28;20635;-77
2022/01/21 09:30:20;;;;;;;14.90;4.15;;;;;;;-1.78;85.34;96733.91;4992826;28;20046;-79
2022/01/21 09:32:45;;;;;;;7.47;3.35;;;;;;;-1.81;85.62;96729.06;4991754;28;20046;-76
2022/01/21 09:35:11;;;;;;;8.85;3.08;;;;;;;-1.92;85.04;96731.00;4988804;28;20039;-77
2022/01/21 09:37:37;;;;;;;8.80;2.55;;;;;;;-1.96;84.24;96727.13;4993699;28;20043;-78
2022/01/21 09:40:05;;;;;;;13.77;4.40;;;;;;;-1.74;84.80;96735.22;4990678;28;20435;-77
2022/01/21 09:42:35;;;;;;;11.50;3.00;;;;;;;-1.57;85.57;96731.69;4990532;28;20528;-77
2022/01/21 09:45:08;;;;;;;15.52;3.47;;;;;;;-1.66;85.23;96735.22;4992395;28;20658;-78
2022/01/21 09:47:45;;;;;;;9.85;3.05;;;;;;;-1.53;82.72;96733.94;4991849;28;20046;-78
2022/01/21 09:50:12;;;;;;;13.45;2.95;;;;;;;-1.12;84.30;96739.00;4994946;28;20081;-78
2022/01/21 09:52:41;;;;;;;20.80;3.67;;;;;;;-1.02;83.31;96747.41;4993689;28;20045;-78
2022/01/21 09:55:06;;;;;;;10.02;3.15;;;;;;;-0.81;82.40;96752.00;5008614;28;20112;-78
2022/01/21 09:57:33;;;;;;;6.13;2.47;;;;;;;-0.85;80.96;96749.94;4993164;28;20485;-78
2022/01/21 09:59:59;;;;;;;15.90;3.13;;;;;;;-1.48;80.96;96749.72;4991033;28;20035;-78
2022/01/21 10:02:28;;;;;;;12.25;3.08;;;;;;;-1.53;81.67;96746.84;4988687;28;20082;-76
2022/01/21 10:04:57;;;;;;;9.70;2.70;;;;;;;-1.62;82.71;96754.56;4984650;28;20046;-78
2022/01/21 10:07:23;;;;;;;7.95;2.55;;;;;;;-1.45;82.82;96755.38;4973682;28;20039;-78
2022/01/21 10:09:50;;;;;;;14.35;3.10;;;;;;;-1.52;83.92;96758.75;4986966;28;20039;-78
2022/01/21 10:12:16;;;;;;;10.88;2.80;;;;;;;-1.37;81.86;96751.97;4992155;28;20412;-78
2022/01/21 10:14:43;;;;;;;8.57;2.70;;;;;;;-1.34;83.23;96761.97;4990535;28;20047;-76
2022/01/21 10:17:10;;;;;;;11.35;3.08;;;;;;;-1.24;80.68;96767.78;4998574;28;20042;-76
2022/01/21 10:19:39;;;;;;;12.88;3.33;;;;;;;-1.24;80.53;96765.19;4994195;28;20678;-78
2022/01/21 10:22:06;;;;;;;15.15;2.80;;;;;;;-0.73;80.56;96764.91;5000820;28;20046;-78
2022/01/21 10:24:35;;;;;;;11.55;2.78;;;;;;;-0.89;79.75;96760.63;5011557;28;20037;-78
2022/01/21 10:27:01;;;;;;;8.63;2.70;;;;;;;-1.21;80.99;96756.31;4995031;28;20046;-78
2022/01/21 10:29:39;;;;;;;12.48;3.08;;;;;;;-1.19;80.30;96763.91;4992468;28;20046;-78
2022/01/21 10:32:07;;;;;;;13.30;3.05;;;;;;;-0.18;77.58;96758.03;5007265;28;20133;-78
2022/01/21 10:34:39;;;;;;;12.70;2.53;;;;;;;-0.50;75.21;96758.19;4993550;28;20046;-77
2022/01/21 10:37:24;;;;;;;14.70;2.92;;;;;;;-1.02;76.56;96770.66;5003754;28;20050;-78
2022/01/21 10:40:09;;;;;;;11.70;2.92;;;;;;;-0.94;78.33;96762.88;4990815;28;20050;-78
2022/01/21 10:42:35;;;;;;;;;;;;;;;-1.03;78.44;96763.88;5003502;28;20108;-77
2022/01/21 10:45:03;;;;;;;8.38;2.38;;;;;;;0.55;72.93;96762.06;4992856;28;20390;-78
2022/01/21 10:47:40;;;;;;;10.35;2.80;;;;;;;-0.50;76.16;96768.53;4992063;28;20078;-78
2022/01/21 10:50:11;;;;;;;6.90;3.00;;;;;;;-0.61;77.34;96760.19;4992568;28;20096;-78
2022/01/21 10:52:38;;;;;;;10.75;3.00;;;;;;;-0.91;76.97;96762.53;5007375;28;20072;-77
2022/01/21 10:55:25;;;;;;;7.88;2.63;;;;;;;-0.63;77.32;96746.63;4991494;28;20117;-78
2022/01/21 10:58:09;;;;;;;11.25;3.08;;;;;;;0.68;73.45;96757.91;4989625;28;20507;-78
2022/01/21 11:00:37;;;;;;;10.43;2.83;;;;;;;0.24;73.83;96770.75;5010769;28;20039;-78
2022/01/21 11:03:14;;;;;;;11.65;3.10;;;;;;;-0.20;76.61;96765.19;4986717;28;20039;-78
2022/01/21 11:05:45;;;;;;;10.32;2.58;;;;;;;-0.66;77.58;96765.06;4995341;28;20045;-76
2022/01/21 11:08:12;;;;;;;9.55;2.92;;;;;;;-0.74;77.82;96767.69;4990390;28;20043;-77
2022/01/21 11:10:42;;;;;;;13.32;3.08;;;;;;;0.70;74.09;96775.88;4989503;28;20049;-76
2022/01/21 11:13:19;;;;;;;12.20;3.35;;;;;;;2.14;69.08;96759.97;4990021;28;20049;-76
2022/01/21 11:15:53;;;;;;;16.33;3.28;;;;;;;3.99;61.27;96750.09;4989321;28;20076;-75
2022/01/21 11:18:20;;;;;;;9.20;2.58;;;;;;;3.07;62.27;96746.09;4988752;28;20042;-76
2022/01/21 11:20:57;;;;;;;10.02;3.13;;;;;;;1.94;65.13;96745.94;4990393;28;20045;-76
2022/01/21 11:23:27;;;;;;;9.30;3.25;;;;;;;1.61;65.89;96746.38;4988238;28;20121;-75
2022/01/21 11:25:57;;;;;;;9.77;3.20;;;;;;;0.36;72.61;96743.47;4984383;28;20038;-74
2022/01/21 11:28:46;;;;;;;10.30;2.80;;;;;;;-0.24;73.13;96745.78;4986619;28;20046;-74
2022/01/21 11:31:14;;;;;;;7.95;2.50;;;;;;;-0.42;73.44;96746.03;5003827;28;20038;-74
2022/01/21 11:33:40;;;;;;;8.23;2.30;;;;;;;-0.57;75.39;96740.78;4979032;28;20393;-76
2022/01/21 11:36:06;;;;;;;15.85;3.05;;;;;;;-0.85;76.43;96739.59;5006103;28;20046;-77
2022/01/21 11:38:37;;;;;;;11.23;3.42;;;;;;;-1.02;77.71;96744.81;4992107;28;20042;-78
2022/01/21 11:41:05;;;;;;;7.10;2.60;;;;;;;-0.95;76.45;96740.59;4994084;28;20046;-79
2022/01/21 11:43:33;;;;;;;7.03;2.47;;;;;;;1.43;71.19;96724.22;5002634;28;20046;-78
2022/01/21 11:51:32;;;;;;;10.35;2.53;;;;;;;5.17;57.57;96713.97;4993041;28;20093;-79
2022/01/21 11:54:22;;;;;;;8.70;2.33;;;;;;;2.83;59.49;96713.53;4975227;28;20047;-78
2022/01/21 11:57:04;;;;;;;6.63;2.45;;;;;;;0.83;65.38;96724.25;4991249;28;20113;-77
2022/01/21 11:59:47;;;;;;;11.63;2.72;;;;;;;0.17;71.01;96730.00;4990878;28;20506;-78
2022/01/21 12:02:16;;;;;;;5.40;2.55;;;;;;;-0.11;69.32;96731.50;5004955;28;20045;-77
2022/01/21 12:04:43;;;;;;;6.78;2.50;;;;;;;-0.12;67.84;96717.75;4992772;28;20053;-77
2022/01/21 12:07:35;;;;;;;6.50;2.55;;;;;;;-0.60;70.55;96717.84;5000208;28;20053;-77
2022/01/21 12:10:04;;;;;;;6.38;2.13;;;;;;;-0.61;71.70;96705.88;4993240;28;20062;-77
2022/01/21 12:12:45;;;;;;;9.10;2.58;;;;;;;1.92;67.14;96696.03;4988790;28;20100;-76
2022/01/21 12:15:31;;;;;;;8.77;2.42;;;;;;;3.06;61.00;96687.25;4982151;28;20042;-77
2022/01/21 12:18:38;;;;;;;9.07;2.05;;;;;;;3.94;58.34;96674.34;4994612;28;20168;-77
2022/01/21 12:21:02;;;;;;;6.53;1.75;;;;;;;4.80;53.66;96677.16;4985906;28;20058;-77
2022/01/21 12:23:28;;;;;;;9.10;2.00;;;;;;;4.82;52.52;96681.13;4998827;28;20125;-77
2022/01/21 12:26:19;;;;;;;9.07;1.88;;;;;;;4.33;52.36;96683.19;4990131;28;20066;-77
2022/01/21 12:29:06;;;;;;;4.45;2.08;;;;;;;4.77;54.35;96690.56;4989192;28;20681;-78